Time;durP1;ratioP1;P1;durP2;ratioP2;P2;SDS_P1;SDS_P2;PMS_P1;PMS_P2;Temp;Humidity;BMP_temperature;BMP_pressure;BME280_temperature;BME280_humidity;BME280_pressure;Samples;Min_cycle;Max_cycle;Signal;HPM_P1;HPM_P2
2021/12/06 00:03:52;;;;;;;69.10;29.10;;;;;;;-0.44;82.69;99017.60;228494;1193;140281;-68
2021/12/06 00:08:56;;;;;;;61.50;28.10;;;;;;;-0.44;82.57;99007.69;228985;1193;140811;-68
2021/12/06 00:14:01;;;;;;;64.70;30.20;;;;;;;-0.50;82.86;99013.45;229639;1193;141578;-68
2021/12/06 00:19:06;;;;;;;70.80;29.10;;;;;;;-0.50;82.63;99018.33;228846;1193;140750;-67
2021/12/06 00:24:09;;;;;;;68.70;29.90;;;;;;;-0.45;82.81;99015.66;228374;1179;140302;-66
2021/12/06 00:29:12;;;;;;;68.90;30.10;;;;;;;-0.42;82.40;99019.81;228174;1193;140653;-66
2021/12/06 00:34:17;;;;;;;64.90;27.30;;;;;;;-0.44;82.67;99025.30;230452;1193;140861;-69
2021/12/06 00:39:22;;;;;;;61.90;28.80;;;;;;;-0.48;82.57;99029.98;230361;1193;140729;-70
2021/12/06 00:44:25;;;;;;;61.60;29.60;;;;;;;-0.49;82.26;99032.88;230426;1193;141868;-71
2021/12/06 00:49:28;;;;;;;73.40;32.00;;;;;;;-0.45;82.63;99041.36;228573;1195;139905;-68
2021/12/06 00:54:35;;;;;;;67.40;29.90;;;;;;;-0.43;82.81;99055.96;229436;1193;139639;-68
2021/12/06 00:59:38;;;;;;;66.20;26.10;;;;;;;-0.39;83.00;99055.91;229085;1193;139383;-68
2021/12/06 01:04:42;;;;;;;64.70;27.60;;;;;;;-0.32;82.83;99061.95;229611;1193;141438;-67
2021/12/06 01:09:46;;;;;;;65.90;28.50;;;;;;;-0.33;82.50;99062.80;229687;1193;139801;-67
2021/12/06 01:14:49;;;;;;;62.80;25.50;;;;;;;-0.34;82.86;99074.90;228193;1193;139214;-67
2021/12/06 01:19:52;;;;;;;69.90;28.50;;;;;;;-0.31;82.76;99076.98;229495;1193;140081;-69
2021/12/06 01:25:06;;;;;;;71.60;31.60;;;;;;;-0.29;82.52;99078.17;227901;1193;140210;-67
2021/12/06 01:41:09;;;;;;;73.90;32.40;;;;;;;-0.37;82.78;99077.00;228903;1193;230538;-68
2021/12/06 01:46:11;;;;;;;64.70;29.20;;;;;;;-0.39;83.32;99076.09;228007;1193;139329;-68
2021/12/06 01:51:14;;;;;;;68.50;27.20;;;;;;;-0.43;82.96;99074.24;228418;1193;141009;-69
2021/12/06 01:56:17;;;;;;;78.60;28.70;;;;;;;-0.38;83.05;99081.95;229302;1193;139523;-69
2021/12/06 02:01:20;;;;;;;63.10;29.60;;;;;;;-0.32;83.12;99089.23;228187;1193;139351;-68
2021/12/06 02:06:23;;;;;;;72.50;30.50;;;;;;;-0.34;82.97;99078.96;228075;1193;139993;-67
2021/12/06 02:11:29;;;;;;;57.30;26.50;;;;;;;-0.40;83.04;99067.77;229196;1193;140421;-67
2021/12/06 02:16:43;;;;;;;65.40;28.20;;;;;;;-0.41;82.94;99062.61;228811;1193;161653;-67
2021/12/06 02:21:47;;;;;;;64.60;27.70;;;;;;;-0.41;83.25;99062.68;229312;1193;139456;-66
2021/12/06 02:26:54;;;;;;;59.20;26.40;;;;;;;-0.44;83.29;99061.63;228625;1193;139313;-67
2021/12/06 02:31:58;;;;;;;71.70;27.20;;;;;;;-0.45;83.24;99068.05;229843;1193;139650;-67
2021/12/06 02:37:02;;;;;;;53.00;25.20;;;;;;;-0.42;83.22;99063.83;230357;1193;140416;-70
2021/12/06 02:42:08;;;;;;;54.40;23.60;;;;;;;-0.41;83.13;99067.52;229713;1194;140517;-69
2021/12/06 02:47:11;;;;;;;62.70;23.20;;;;;;;-0.42;83.29;99072.57;230462;1193;139183;-68
2021/12/06 02:52:14;;;;;;;59.20;24.00;;;;;;;-0.41;83.10;99079.43;229119;1193;139903;-66
2021/12/06 02:57:32;;;;;;;67.00;27.80;;;;;;;-0.35;83.22;99096.36;230089;1193;140941;-67
2021/12/06 03:02:34;;;;;;;49.90;24.50;;;;;;;-0.32;83.46;99092.86;229567;1193;140205;-67
2021/12/06 03:07:38;;;;;;;55.50;21.80;;;;;;;-0.35;83.15;99087.43;229063;1193;140420;-66
2021/12/06 03:12:42;;;;;;;56.10;20.90;;;;;;;-0.36;83.27;99090.15;228928;1193;140169;-65
2021/12/06 03:17:46;;;;;;;45.30;21.40;;;;;;;-0.30;83.38;99089.45;228756;1193;141681;-66
2021/12/06 03:22:48;;;;;;;45.00;21.80;;;;;;;-0.38;83.28;99084.35;228939;1193;140615;-66
2021/12/06 03:27:51;;;;;;;55.10;21.40;;;;;;;-0.47;83.52;99082.86;227544;1193;161995;-65
2021/12/06 03:32:54;;;;;;;43.20;23.30;;;;;;;-0.48;83.39;99084.81;228026;1193;141031;-66
2021/12/06 03:37:57;;;;;;;48.50;21.40;;;;;;;-0.50;83.44;99097.30;228567;1193;141477;-67
2021/12/06 03:43:00;;;;;;;39.50;17.30;;;;;;;-0.50;83.90;99109.14;228784;1193;140254;-65
2021/12/06 03:48:04;;;;;;;38.30;18.00;;;;;;;-0.50;83.65;99120.43;227934;1193;142765;-65
2021/12/06 03:53:07;;;;;;;38.90;17.80;;;;;;;-0.46;83.90;99122.78;228972;1193;143550;-65
2021/12/06 03:58:10;;;;;;;26.30;14.50;;;;;;;-0.43;83.48;99129.36;229072;1193;161180;-66
2021/12/06 04:03:13;;;;;;;34.70;16.40;;;;;;;-0.45;83.68;99136.91;229258;1193;140096;-67
2021/12/06 04:08:16;;;;;;;32.40;17.60;;;;;;;-0.44;83.90;99143.36;228685;1193;139366;-67
2021/12/06 04:13:19;;;;;;;26.40;14.90;;;;;;;-0.41;83.67;99151.84;229134;1193;140141;-67
2021/12/06 04:18:22;;;;;;;33.50;15.20;;;;;;;-0.29;83.89;99163.59;229958;1193;141194;-70
2021/12/06 04:23:25;;;;;;;29.30;16.10;;;;;;;-0.22;83.80;99164.70;228390;1193;140322;-69
2021/12/06 04:28:32;;;;;;;21.70;12.60;;;;;;;-0.19;83.42;99172.33;230473;1193;141431;-71
2021/12/06 04:33:35;;;;;;;29.10;12.20;;;;;;;-0.21;83.52;99176.11;230293;1193;140821;-70
2021/12/06 04:38:40;;;;;;;21.50;11.60;;;;;;;-0.18;83.46;99180.67;230371;1193;139995;-68
2021/12/06 04:43:42;;;;;;;22.60;13.30;;;;;;;-0.15;83.41;99186.02;230568;1193;141082;-68
2021/12/06 04:48:44;;;;;;;27.60;11.60;;;;;;;-0.17;83.13;99187.15;230305;1193;140932;-69
2021/12/06 04:53:49;;;;;;;20.50;10.70;;;;;;;-0.21;83.31;99181.15;229449;1193;141101;-66
2021/12/06 04:58:55;;;;;;;19.70;9.90;;;;;;;-0.20;82.95;99168.84;228818;1193;141543;-67
2021/12/06 05:04:04;;;;;;;18.20;11.40;;;;;;;-0.21;83.23;99167.54;229369;1194;139259;-65
2021/12/06 05:09:14;;;;;;;16.10;9.80;;;;;;;-0.24;83.37;99169.27;229897;1193;140005;-66
2021/12/06 05:14:17;;;;;;;19.30;10.90;;;;;;;-0.26;82.93;99174.43;228110;1193;140145;-67
2021/12/06 05:19:21;;;;;;;20.10;10.50;;;;;;;-0.29;82.95;99171.80;229207;1194;140042;-68
2021/12/06 05:24:24;;;;;;;15.60;10.00;;;;;;;-0.35;83.42;99174.17;228250;1194;139934;-67
2021/12/06 05:29:28;;;;;;;17.30;9.90;;;;;;;-0.39;83.35;99175.18;228833;1187;139741;-66
2021/12/06 05:34:40;;;;;;;19.30;10.00;;;;;;;-0.42;82.99;99182.64;228930;1194;139097;-68
2021/12/06 05:39:43;;;;;;;19.70;10.20;;;;;;;-0.38;83.44;99174.73;228744;1193;139710;-72
2021/12/06 05:44:50;;;;;;;27.20;11.90;;;;;;;-0.43;83.48;99172.80;227801;1193;165271;-70
2021/12/06 05:49:52;;;;;;;18.90;10.40;;;;;;;-0.42;83.41;99185.52;228420;1193;142726;-70
2021/12/06 05:54:55;;;;;;;15.20;10.90;;;;;;;-0.39;83.70;99187.42;227981;1193;140675;-67
2021/12/06 05:59:58;;;;;;;21.40;10.10;;;;;;;-0.42;83.49;99203.25;227914;1193;141298;-67
2021/12/06 06:05:00;;;;;;;29.80;12.30;;;;;;;-0.44;83.67;99217.68;228781;1194;139768;-69
2021/12/06 06:10:04;;;;;;;23.20;12.10;;;;;;;-0.38;83.75;99226.60;228936;1193;142455;-68
2021/12/06 06:15:08;;;;;;;26.30;12.50;;;;;;;-0.43;83.63;99236.36;227721;1193;141107;-67
2021/12/06 06:20:33;;;;;;;21.50;11.40;;;;;;;-0.45;84.20;99250.45;229174;1187;140342;-70
2021/12/06 06:25:36;;;;;;;24.40;12.30;;;;;;;-0.44;83.83;99254.52;227842;1194;139961;-68
2021/12/06 06:30:39;;;;;;;23.40;10.70;;;;;;;-0.39;83.83;99266.55;227785;1193;142398;-69
2021/12/06 06:35:41;;;;;;;22.20;10.80;;;;;;;-0.39;83.56;99281.49;229940;1193;140084;-68
2021/12/06 06:40:44;;;;;;;20.80;10.30;;;;;;;-0.44;83.52;99285.23;230540;1193;139708;-68
2021/12/06 06:45:46;;;;;;;27.00;12.60;;;;;;;-0.44;83.77;99287.02;230090;1194;141283;-72
2021/12/06 06:50:49;;;;;;;25.70;15.30;;;;;;;-0.42;83.36;99288.16;230244;1187;140170;-71
2021/12/06 06:55:52;;;;;;;21.10;10.10;;;;;;;-0.40;83.63;99292.23;229209;1193;139712;-69
2021/12/06 07:00:55;;;;;;;30.20;12.00;;;;;;;-0.42;83.56;99294.91;229549;1193;140323;-67
2021/12/06 07:06:02;;;;;;;22.80;12.40;;;;;;;-0.38;83.76;99290.98;229679;1194;139967;-66
2021/12/06 07:11:06;;;;;;;24.90;13.80;;;;;;;-0.37;83.86;99293.34;228527;1193;139350;-69
2021/12/06 07:16:09;;;;;;;22.10;12.90;;;;;;;-0.38;83.86;99295.58;229689;1194;139206;-70
2021/12/06 07:21:14;;;;;;;23.70;13.80;;;;;;;-0.36;83.63;99294.05;229614;1193;139870;-72
2021/12/06 07:26:19;;;;;;;22.40;11.90;;;;;;;-0.34;83.83;99287.39;227637;1193;139414;-66
2021/12/06 07:31:22;;;;;;;22.00;13.00;;;;;;;-0.35;83.86;99283.63;229019;1193;139459;-70
2021/12/06 07:36:28;;;;;;;26.00;14.90;;;;;;;-0.33;83.87;99288.77;228593;1193;139320;-68
2021/12/06 07:41:32;;;;;;;29.50;14.90;;;;;;;-0.28;83.76;99291.13;227970;1193;141031;-67
2021/12/06 07:46:36;;;;;;;22.40;12.10;;;;;;;-0.20;84.24;99307.83;228810;1193;139478;-65
2021/12/06 07:51:43;;;;;;;19.90;12.30;;;;;;;-0.22;83.89;99319.89;228362;1194;139231;-66
2021/12/06 07:56:46;;;;;;;24.00;12.90;;;;;;;-0.25;83.86;99316.24;229042;1193;140351;-67
2021/12/06 08:01:53;;;;;;;;;;;;;;;-0.24;83.89;99308.64;228074;1193;139755;-67
2021/12/06 08:07:00;;;;;;;18.70;12.20;;;;;;;-0.27;83.61;99307.39;229609;1193;126178;-66
2021/12/06 08:12:04;;;;;;;24.20;12.30;;;;;;;-0.26;84.11;99310.23;228225;1193;140081;-66
2021/12/06 08:17:06;;;;;;;19.00;10.90;;;;;;;-0.24;83.86;99306.16;228614;1193;139461;-68
2021/12/06 08:22:09;;;;;;;16.30;10.00;;;;;;;-0.23;83.90;99298.95;228431;1194;141794;-66
2021/12/06 08:27:12;;;;;;;21.80;11.50;;;;;;;-0.23;84.01;99298.39;227941;1193;140460;-65
2021/12/06 08:32:15;;;;;;;25.60;12.50;;;;;;;-0.25;83.86;99308.10;229268;1193;140098;-65
2021/12/06 08:37:19;;;;;;;27.10;14.10;;;;;;;-0.25;83.80;99314.44;228421;1193;139738;-67
2021/12/06 08:42:22;;;;;;;23.00;13.90;;;;;;;-0.24;83.83;99317.52;229499;1193;141673;-65
2021/12/06 08:47:26;;;;;;;25.80;12.80;;;;;;;-0.25;83.78;99333.73;230017;1193;141229;-67
2021/12/06 08:52:33;;;;;;;15.80;9.20;;;;;;;-0.24;83.90;99344.43;230336;1193;141185;-74
2021/12/06 08:57:36;;;;;;;20.50;10.20;;;;;;;-0.27;83.56;99352.11;230388;1193;138991;-68
2021/12/06 09:02:40;;;;;;;17.90;10.60;;;;;;;-0.24;83.54;99357.98;229476;1193;141537;-66
2021/12/06 09:08:00;;;;;;;19.50;11.60;;;;;;;-0.25;83.46;99363.92;229108;1193;139962;-65
2021/12/06 09:13:05;;;;;;;22.70;12.40;;;;;;;-0.26;83.62;99374.66;229410;1193;139064;-67
2021/12/06 09:18:10;;;;;;;24.90;14.90;;;;;;;-0.19;83.68;99374.39;229281;1193;141937;-68
2021/12/06 09:23:15;;;;;;;24.20;12.90;;;;;;;-0.15;83.62;99371.61;229357;1193;140461;-67
2021/12/06 09:28:21;;;;;;;21.80;11.40;;;;;;;-0.18;83.58;99375.79;229082;1193;139530;-65
2021/12/06 09:33:25;;;;;;;19.60;11.20;;;;;;;-0.17;83.64;99381.88;228498;1193;139832;-67
2021/12/06 09:38:35;;;;;;;21.90;11.80;;;;;;;-0.15;83.55;99390.35;228215;1193;141823;-66
2021/12/06 09:43:42;;;;;;;21.40;12.80;;;;;;;-0.20;83.40;99391.95;228685;1193;140144;-65
2021/12/06 09:48:49;;;;;;;24.90;12.50;;;;;;;-0.19;84.01;99388.89;228988;1193;140526;-66
2021/12/06 09:53:56;;;;;;;25.20;14.40;;;;;;;-0.11;83.68;99388.72;228261;1193;140094;-67
2021/12/06 09:59:05;;;;;;;25.10;14.20;;;;;;;-0.09;83.70;99387.39;229061;1193;141092;-69
2021/12/06 10:04:10;;;;;;;25.30;12.70;;;;;;;-0.06;83.61;99383.51;227923;1193;139769;-69
2021/12/06 10:09:13;;;;;;;27.90;15.00;;;;;;;-0.06;83.59;99381.77;228117;1193;141038;-66
2021/12/06 10:14:17;;;;;;;25.70;11.90;;;;;;;-0.04;83.48;99376.82;228575;1193;140727;-65
2021/12/06 10:19:21;;;;;;;29.20;14.60;;;;;;;-0.04;83.48;99384.14;228016;1193;162973;-70
2021/12/06 10:24:27;;;;;;;29.90;15.60;;;;;;;-0.01;83.18;99389.91;228151;1193;142093;-66
2021/12/06 10:29:38;;;;;;;18.00;9.30;;;;;;;-0.02;83.15;99389.09;228074;1193;141900;-66
2021/12/06 10:34:45;;;;;;;34.20;16.80;;;;;;;-0.12;83.17;99386.20;228995;1193;140697;-65
2021/12/06 10:39:53;;;;;;;23.30;14.80;;;;;;;-0.16;83.06;99388.19;229559;1193;143822;-69
2021/12/06 10:45:02;;;;;;;32.10;14.40;;;;;;;-0.20;83.23;99391.83;230315;1193;140765;-70
2021/12/06 10:50:16;;;;;;;35.00;18.50;;;;;;;-0.19;83.36;99388.53;229502;1193;139775;-70
2021/12/06 10:55:22;;;;;;;33.30;17.70;;;;;;;-0.13;83.33;99386.64;230349;1193;140225;-67
2021/12/06 11:00:52;;;;;;;27.70;15.80;;;;;;;-0.19;82.64;99387.81;230535;1193;140020;-67
2021/12/06 11:06:03;;;;;;;34.50;20.00;;;;;;;-0.22;82.78;99393.41;230155;1193;140910;-69
2021/12/06 11:11:20;;;;;;;33.70;18.00;;;;;;;-0.20;83.02;99396.36;230482;1193;140374;-69
2021/12/06 11:16:44;;;;;;;39.40;18.60;;;;;;;-0.14;82.88;99393.22;228913;1193;140140;-67
2021/12/06 11:21:54;;;;;;;27.00;12.90;;;;;;;-0.15;82.68;99388.29;228394;1193;139948;-68
2021/12/06 11:27:05;;;;;;;39.40;19.20;;;;;;;-0.24;82.68;99388.60;228821;1193;139517;-68
2021/12/06 11:32:14;;;;;;;41.40;19.50;;;;;;;-0.27;82.98;99382.36;228887;1193;139366;-68
2021/12/06 11:37:24;;;;;;;34.90;17.60;;;;;;;-0.29;82.94;99381.83;228718;1193;139134;-67
2021/12/06 11:42:28;;;;;;;45.40;19.30;;;;;;;-0.38;82.76;99379.27;228415;1193;140025;-69
2021/12/06 11:47:36;;;;;;;43.90;23.90;;;;;;;-0.36;82.80;99379.30;229247;1193;140154;-69
2021/12/06 11:52:40;;;;;;;;;;;;;;;-0.39;82.91;99379.25;228383;1194;139116;-68
2021/12/06 11:57:53;;;;;;;34.30;19.50;;;;;;;-0.44;83.11;99387.88;228350;1195;125602;-67
2021/12/06 12:03:00;;;;;;;42.10;21.50;;;;;;;-0.49;83.04;99381.41;228379;1193;141102;-68
2021/12/06 12:08:07;;;;;;;39.80;22.10;;;;;;;-0.59;82.73;99395.14;228467;1193;140112;-69
2021/12/06 12:13:23;;;;;;;44.70;23.50;;;;;;;-0.63;83.03;99401.18;229151;1194;140611;-68
2021/12/06 12:18:32;;;;;;;40.80;21.80;;;;;;;-0.64;83.16;99410.58;228040;1193;139846;-68
2021/12/06 12:23:37;;;;;;;38.60;17.80;;;;;;;-0.69;82.98;99408.52;227951;1193;140684;-69
2021/12/06 12:28:59;;;;;;;40.90;20.70;;;;;;;-0.70;83.25;99415.04;228330;1194;141873;-68
2021/12/06 12:34:09;;;;;;;42.70;21.00;;;;;;;-0.74;83.47;99419.87;229215;1185;141051;-69
2021/12/06 12:39:18;;;;;;;39.10;19.10;;;;;;;-0.72;83.31;99418.45;229802;1193;140260;-68
2021/12/06 12:44:21;;;;;;;50.10;25.40;;;;;;;-0.70;83.16;99416.31;229800;1193;140645;-69
2021/12/06 12:49:30;;;;;;;48.20;24.00;;;;;;;-0.70;82.91;99419.72;229648;1193;140117;-69
2021/12/06 12:54:35;;;;;;;49.20;21.40;;;;;;;-0.72;82.70;99424.63;229094;1194;139556;-68
2021/12/06 12:59:52;;;;;;;38.50;21.90;;;;;;;-0.69;83.10;99428.59;230438;1193;140725;-68
2021/12/06 13:05:20;;;;;;;41.00;20.80;;;;;;;-0.69;83.19;99432.05;229729;1193;141423;-69
2021/12/06 13:10:24;;;;;;;41.70;22.50;;;;;;;-0.63;83.23;99432.00;229718;1181;140149;-67
2021/12/06 13:15:59;;;;;;;41.40;21.20;;;;;;;-0.62;82.89;99432.55;230489;1193;141133;-67
2021/12/06 13:21:36;;;;;;;39.50;20.30;;;;;;;-0.68;82.72;99440.16;227964;1193;140768;-70
2021/12/06 13:26:46;;;;;;;37.40;20.00;;;;;;;-0.73;82.49;99437.52;229252;1193;139727;-69
2021/12/06 13:31:53;;;;;;;36.10;18.10;;;;;;;-0.76;82.87;99450.13;228602;1193;140188;-68
2021/12/06 13:36:59;;;;;;;45.80;25.70;;;;;;;-0.80;82.88;99453.70;228942;1193;140035;-68
2021/12/06 13:42:42;;;;;;;35.50;19.70;;;;;;;-0.80;83.11;99456.27;228708;1193;139689;-69
2021/12/06 13:48:09;;;;;;;35.40;20.30;;;;;;;-0.81;82.94;99465.61;228093;1193;140258;-68
2021/12/06 13:53:38;;;;;;;48.80;24.10;;;;;;;-0.84;83.07;99467.61;228391;1193;139501;-68
2021/12/06 13:58:42;;;;;;;;;;;;;;;-0.84;82.73;99471.73;228573;1193;139629;-68
2021/12/06 14:03:46;;;;;;;37.60;20.40;;;;;;;-0.87;83.09;99475.80;228880;1193;126801;-68
2021/12/06 14:08:53;;;;;;;44.40;23.00;;;;;;;-0.92;83.29;99481.07;228859;1193;139988;-68
2021/12/06 14:13:58;;;;;;;39.90;19.20;;;;;;;-0.91;83.16;99487.65;227849;1193;140142;-67
2021/12/06 14:19:11;;;;;;;37.20;19.50;;;;;;;-0.92;82.91;99487.83;228650;1186;140026;-67
2021/12/06 14:24:14;;;;;;;49.50;25.80;;;;;;;-0.94;83.06;99488.08;229258;1186;141477;-66
2021/12/06 14:29:24;;;;;;;36.80;20.20;;;;;;;-0.93;82.78;99489.35;228942;1193;141040;-68
2021/12/06 14:34:33;;;;;;;43.20;19.70;;;;;;;-0.95;82.86;99486.30;228767;1193;140340;-67
2021/12/06 14:39:41;;;;;;;40.30;20.10;;;;;;;-1.02;82.76;99485.23;228953;1193;140438;-68
2021/12/06 14:44:54;;;;;;;48.80;21.50;;;;;;;-1.00;82.92;99485.92;229123;1193;141872;-67
2021/12/06 14:50:04;;;;;;;36.00;20.70;;;;;;;-0.94;83.01;99490.52;228981;1193;141330;-68
2021/12/06 15:00:50;;;;;;;50.50;23.90;;;;;;;-0.92;82.73;99483.64;230485;1193;139770;-68
2021/12/06 15:06:04;;;;;;;48.90;22.90;;;;;;;-0.93;82.71;99484.64;230523;1193;140800;-71
2021/12/06 15:11:12;;;;;;;32.70;18.60;;;;;;;-0.92;82.83;99489.36;230399;1193;150692;-71
2021/12/06 15:16:19;;;;;;;47.00;22.40;;;;;;;-0.92;82.79;99494.83;229433;1193;140830;-70
2021/12/06 15:21:30;;;;;;;35.20;17.40;;;;;;;-0.88;82.87;99497.52;228651;1193;140298;-69
2021/12/06 15:26:45;;;;;;;44.70;21.60;;;;;;;-0.90;82.77;99504.69;228479;1193;139763;-67
2021/12/06 15:31:51;;;;;;;46.30;21.40;;;;;;;-0.94;82.68;99512.59;229086;1193;221064;-69
2021/12/06 15:36:57;;;;;;;41.40;19.90;;;;;;;-0.92;82.69;99514.19;228446;1195;140439;-68
2021/12/06 15:42:08;;;;;;;39.20;19.50;;;;;;;-0.90;82.90;99522.45;228363;1193;140645;-69
2021/12/06 15:47:21;;;;;;;49.30;20.70;;;;;;;-0.94;82.76;99528.76;229212;1193;140622;-69
2021/12/06 15:52:29;;;;;;;37.80;19.50;;;;;;;-0.96;82.86;99533.46;228095;1193;141004;-68
2021/12/06 15:57:40;;;;;;;53.00;19.60;;;;;;;-0.99;82.81;99543.70;227968;1193;141152;-68
2021/12/06 16:02:51;;;;;;;48.10;23.20;;;;;;;-1.09;83.07;99555.21;228625;1193;140280;-70
2021/12/06 16:08:01;;;;;;;61.70;22.10;;;;;;;-1.13;83.01;99563.55;228262;1193;141874;-69
2021/12/06 16:13:15;;;;;;;48.30;21.70;;;;;;;-1.15;83.24;99570.67;228011;1194;140236;-69
2021/12/06 16:18:24;;;;;;;39.10;16.60;;;;;;;-1.11;83.47;99575.64;228220;1193;139179;-68
2021/12/06 16:23:54;;;;;;;44.70;17.60;;;;;;;-1.16;83.37;99573.71;227742;1193;141652;-68
2021/12/06 16:29:19;;;;;;;49.70;22.30;;;;;;;-1.23;83.23;99579.21;228012;1193;140761;-68
2021/12/06 16:34:29;;;;;;;54.30;24.50;;;;;;;-1.29;83.35;99575.03;228854;1193;140286;-69
2021/12/06 16:39:39;;;;;;;50.10;23.10;;;;;;;-1.32;83.38;99579.12;228007;1193;140396;-69
2021/12/06 16:44:44;;;;;;;43.70;21.30;;;;;;;-1.32;83.51;99579.64;229853;1193;140276;-69
2021/12/06 16:49:56;;;;;;;42.80;18.60;;;;;;;-1.34;83.46;99582.21;229401;1193;140477;-68
2021/12/06 16:55:08;;;;;;;41.20;18.60;;;;;;;-1.38;83.32;99580.77;229145;1193;139547;-68
2021/12/06 17:00:24;;;;;;;33.90;16.90;;;;;;;-1.37;83.45;99577.90;229548;1193;139663;-69
2021/12/06 17:05:33;;;;;;;48.00;20.20;;;;;;;-1.41;83.20;99583.60;230165;1193;139904;-69
2021/12/06 17:10:41;;;;;;;35.80;17.40;;;;;;;-1.42;83.41;99585.80;230228;1193;141416;-68
2021/12/06 17:15:46;;;;;;;35.60;14.70;;;;;;;-1.40;83.40;99588.91;229848;1193;140408;-68
2021/12/06 17:21:17;;;;;;;39.30;18.30;;;;;;;-1.40;83.26;99591.48;230260;1193;141178;-70
2021/12/06 17:26:27;;;;;;;40.00;18.10;;;;;;;-1.40;83.27;99598.08;229227;1193;139822;-69
2021/12/06 17:31:31;;;;;;;35.40;15.80;;;;;;;-1.38;83.15;99591.62;229084;1193;140497;-69
2021/12/06 17:36:38;;;;;;;41.10;19.10;;;;;;;-1.37;82.99;99588.00;228801;1193;140706;-69
2021/12/06 17:41:47;;;;;;;36.50;18.60;;;;;;;-1.44;83.03;99588.89;229276;1195;139266;-68
2021/12/06 17:46:53;;;;;;;31.70;17.00;;;;;;;-1.46;83.09;99589.18;228184;1193;140345;-68
2021/12/06 17:51:57;;;;;;;23.00;13.10;;;;;;;-1.46;82.97;99586.70;228866;1193;139861;-69
2021/12/06 17:57:03;;;;;;;27.60;13.20;;;;;;;-1.48;83.21;99585.70;228235;1193;140187;-68
2021/12/06 18:02:11;;;;;;;30.20;14.50;;;;;;;-1.50;83.12;99587.87;229279;1193;139910;-69
2021/12/06 18:07:14;;;;;;;34.00;14.60;;;;;;;-1.45;83.16;99585.42;228751;1193;142270;-69
2021/12/06 18:12:24;;;;;;;41.00;20.10;;;;;;;-1.43;83.28;99583.24;228649;1195;139426;-68
2021/12/06 18:17:28;;;;;;;32.40;17.60;;;;;;;-1.45;83.09;99585.04;229423;1193;139592;-68
2021/12/06 18:22:32;;;;;;;34.50;21.70;;;;;;;-1.46;82.94;99582.90;228731;1193;139906;-68
2021/12/06 18:27:36;;;;;;;23.70;12.80;;;;;;;-1.50;82.89;99587.99;228052;1193;140302;-67
2021/12/06 18:32:43;;;;;;;37.50;18.10;;;;;;;-1.57;83.10;99585.49;228292;1193;140692;-68
2021/12/06 18:37:48;;;;;;;42.10;20.00;;;;;;;-1.67;83.05;99588.60;228837;1193;141611;-69
2021/12/06 18:42:56;;;;;;;39.40;21.60;;;;;;;-1.71;83.11;99586.36;228543;1194;141533;-68
2021/12/06 18:48:04;;;;;;;34.70;18.00;;;;;;;-1.81;82.92;99587.97;229561;1193;140578;-69
2021/12/06 18:53:10;;;;;;;40.50;18.90;;;;;;;-1.89;82.96;99590.38;229034;1194;151301;-68
2021/12/06 18:58:15;;;;;;;47.00;22.20;;;;;;;-1.91;83.02;99587.63;228411;1193;140757;-68
2021/12/06 19:03:21;;;;;;;35.00;18.40;;;;;;;-1.93;83.23;99576.21;230262;1193;139640;-69
2021/12/06 19:08:25;;;;;;;44.50;19.90;;;;;;;-1.93;83.40;99577.20;230079;1193;140531;-69
2021/12/06 19:13:33;;;;;;;36.40;18.60;;;;;;;-1.88;83.24;99579.02;230106;1193;140455;-71
2021/12/06 19:18:38;;;;;;;30.30;16.60;;;;;;;-1.89;82.92;99582.02;228807;1193;143058;-69
2021/12/06 19:23:41;;;;;;;34.80;20.30;;;;;;;-1.95;83.01;99587.67;230389;1193;141117;-69
2021/12/06 19:28:45;;;;;;;43.30;20.00;;;;;;;-1.90;82.88;99593.66;229883;1193;140647;-70
2021/12/06 19:33:48;;;;;;;30.50;16.30;;;;;;;-1.90;82.83;99600.89;229322;1193;140527;-69
2021/12/06 19:38:52;;;;;;;41.20;19.50;;;;;;;-1.98;82.90;99608.95;229750;1193;151907;-69
2021/12/06 19:43:55;;;;;;;37.10;18.20;;;;;;;-1.99;82.80;99614.89;228630;1193;140659;-69
2021/12/06 19:48:59;;;;;;;36.90;18.00;;;;;;;-1.98;82.92;99614.85;229318;1193;141429;-69
2021/12/06 19:54:02;;;;;;;36.00;16.70;;;;;;;-1.98;82.98;99619.17;228783;1193;140774;-67
2021/12/06 19:59:07;;;;;;;36.60;17.50;;;;;;;-2.01;82.91;99618.77;228341;1193;141403;-69
2021/12/06 20:04:11;;;;;;;37.50;18.00;;;;;;;-2.02;82.74;99624.44;228052;1193;140050;-69
2021/12/06 20:09:15;;;;;;;30.90;17.00;;;;;;;-2.07;82.68;99621.23;228679;1193;140197;-69
2021/12/06 20:14:18;;;;;;;34.80;16.60;;;;;;;-2.15;82.79;99627.52;228734;1193;139063;-68
2021/12/06 20:19:22;;;;;;;29.20;16.20;;;;;;;-2.19;82.78;99631.80;227837;1194;230067;-68
2021/12/06 20:24:27;;;;;;;31.80;15.20;;;;;;;-2.18;82.88;99633.75;228652;1193;141602;-66
2021/12/06 20:29:31;;;;;;;37.00;16.60;;;;;;;-2.20;82.82;99628.23;228846;1193;139397;-67
2021/12/06 20:34:36;;;;;;;33.30;17.90;;;;;;;-2.24;82.81;99629.16;228004;1193;141295;-68
2021/12/06 20:39:40;;;;;;;33.60;14.20;;;;;;;-2.23;82.76;99625.78;228567;1193;140912;-66
2021/12/06 20:44:44;;;;;;;39.30;18.90;;;;;;;-2.19;82.97;99624.60;228507;1193;140397;-69
2021/12/06 20:49:50;;;;;;;32.00;16.50;;;;;;;-2.21;82.87;99622.05;228460;1193;140241;-69
2021/12/06 20:54:53;;;;;;;36.60;17.90;;;;;;;-2.21;82.81;99628.83;228561;1193;140580;-68
2021/12/06 20:59:56;;;;;;;29.50;17.00;;;;;;;-2.16;82.90;99621.83;229246;1186;141533;-69
2021/12/06 21:04:58;;;;;;;33.60;17.60;;;;;;;-2.14;82.88;99622.03;228985;1193;140883;-69
2021/12/06 21:10:01;;;;;;;28.80;14.60;;;;;;;-2.14;82.92;99621.48;230158;1193;139535;-69
2021/12/06 21:15:17;;;;;;;30.90;16.50;;;;;;;-2.15;82.77;99624.18;230465;1193;141868;-71
2021/12/06 21:20:22;;;;;;;33.00;16.90;;;;;;;-2.11;82.55;99622.95;229628;1193;141412;-69
2021/12/06 21:25:24;;;;;;;27.90;15.20;;;;;;;-2.06;82.64;99619.58;230509;1193;140568;-70
2021/12/06 21:30:31;;;;;;;30.90;15.20;;;;;;;-2.06;82.44;99612.69;228007;1193;140073;-67
2021/12/06 21:35:42;;;;;;;34.50;17.80;;;;;;;-2.12;82.21;99613.80;230114;1193;141253;-66
2021/12/06 21:40:45;;;;;;;23.60;13.00;;;;;;;-2.13;82.37;99614.11;228178;1193;140778;-68
2021/12/06 21:45:48;;;;;;;35.90;15.10;;;;;;;-2.18;82.38;99616.52;227953;1193;141278;-65
2021/12/06 21:50:51;;;;;;;35.70;15.80;;;;;;;-2.21;82.36;99617.05;228378;1193;141191;-65
2021/12/06 21:55:54;;;;;;;29.50;15.20;;;;;;;-2.22;82.35;99607.34;228609;1193;140646;-66
2021/12/06 22:00:59;;;;;;;27.80;14.60;;;;;;;-2.25;82.55;99605.05;228084;1193;140570;-66
2021/12/06 22:06:04;;;;;;;31.60;17.00;;;;;;;-2.28;82.58;99607.79;229015;1193;140393;-68
2021/12/06 22:11:10;;;;;;;;;;;;;;;-2.27;82.42;99609.49;228117;1193;141052;-67
2021/12/06 22:16:15;;;;;;;35.20;16.00;;;;;;;-2.31;82.37;99605.82;228478;1193;127906;-66
2021/12/06 22:21:17;;;;;;;37.00;18.20;;;;;;;-2.33;82.48;99602.27;228648;1193;141859;-64
2021/12/06 22:26:20;;;;;;;32.70;16.10;;;;;;;-2.37;82.60;99597.40;228570;1193;141952;-65
2021/12/06 22:31:23;;;;;;;27.00;13.40;;;;;;;-2.41;82.21;99591.64;228814;1193;140678;-65
2021/12/06 22:36:26;;;;;;;29.70;17.50;;;;;;;-2.40;82.38;99591.77;228153;1193;142605;-66
2021/12/06 22:41:32;;;;;;;27.70;15.40;;;;;;;-2.44;82.39;99593.22;228893;1193;140999;-66
2021/12/06 22:46:36;;;;;;;29.10;16.10;;;;;;;-2.44;82.67;99591.02;228770;1190;140162;-65
2021/12/06 22:51:42;;;;;;;31.00;15.80;;;;;;;-2.41;82.46;99592.05;229216;1193;140255;-65
2021/12/06 22:56:44;;;;;;;32.30;15.70;;;;;;;-2.38;82.46;99597.13;228860;1193;140537;-67
2021/12/06 23:01:48;;;;;;;35.70;20.50;;;;;;;-2.36;82.46;99602.33;229991;1193;139814;-66
2021/12/06 23:06:51;;;;;;;33.50;17.20;;;;;;;-2.39;82.36;99598.43;230372;1193;139373;-67
2021/12/06 23:11:54;;;;;;;33.20;16.30;;;;;;;-2.31;82.41;99599.20;230449;1193;141088;-68
2021/12/06 23:16:56;;;;;;;28.40;15.20;;;;;;;-2.23;82.32;99602.48;230500;1193;141990;-67